ACA814 CYUL-LFMN
Flight info
| Callsign | ACA814 |
|---|---|
| Flight time | N/A |
| Altitude | 37000 |
| Route | SUXET DCT NOVUN DCT ESRAM DCT RABIK Q951 ANTOV DCT HULTN N439B ELSIR/M082F380 NATV GISTI/M081F390 DCT ARKIL/N0465F390 DCT DOLUR DCT TERKU DCT KORER DCT LEMKA DCT BEBIX DCT LERGA DCT LIQID DCT LATAM DCT TUNUR DCT NISAR |
| Aircraft | A333/H-SDE3GHIJ2J3J5M1RVWXY/LB2D1 |
Departure
| Time | 2026-05-06 09:57 |
|---|---|
| Airport | Montreal / Pierre Elliott Trudeau International Airport (CYUL) |
Arrival
| Time | N/A |
|---|---|
| Airport | Nice-Côte d'Azur Airport (LFMN) |
| Time | Latitude | Longitude | Altitude | Speed | Heading |
|---|---|---|---|---|---|
| 2026-05-06 09:48 | 45.45985 | -73.75511 | 111 ft | 0 kts | 180° |
| 2026-05-06 09:52 | 45.46049 | -73.75510 | 111 ft | 9 kts | 180° |
| 2026-05-06 09:52 | 45.46069 | -73.75510 | 111 ft | 0 kts | 180° |
| 2026-05-06 09:52 | 45.46038 | -73.75555 | 111 ft | 17 kts | 253° |
| 2026-05-06 09:53 | 45.46106 | -73.75696 | 111 ft | 20 kts | 340° |
| 2026-05-06 09:53 | 45.46246 | -73.75719 | 113 ft | 19 kts | 360° |
| 2026-05-06 09:53 | 45.46415 | -73.75668 | 115 ft | 35 kts | 19° |
| 2026-05-06 09:53 | 45.46641 | -73.75409 | 115 ft | 43 kts | 42° |
| 2026-05-06 09:54 | 45.46862 | -73.75120 | 115 ft | 42 kts | 42° |
| 2026-05-06 09:54 | 45.47073 | -73.74844 | 118 ft | 40 kts | 43° |
| 2026-05-06 09:54 | 45.47272 | -73.74579 | 120 ft | 38 kts | 43° |
| 2026-05-06 09:54 | 45.47463 | -73.74335 | 121 ft | 36 kts | 41° |
| 2026-05-06 09:55 | 45.47647 | -73.74097 | 121 ft | 34 kts | 43° |
| 2026-05-06 09:55 | 45.47817 | -73.73869 | 122 ft | 33 kts | 44° |
| 2026-05-06 09:55 | 45.47978 | -73.73646 | 124 ft | 31 kts | 42° |
| 2026-05-06 09:55 | 45.48138 | -73.73453 | 125 ft | 29 kts | 18° |
| 2026-05-06 09:56 | 45.48264 | -73.73591 | 125 ft | 30 kts | 259° |
| 2026-05-06 09:56 | 45.48027 | -73.73981 | 125 ft | 86 kts | 223° |
| 2026-05-06 09:56 | 45.47404 | -73.74798 | 122 ft | 153 kts | 222° |
| 2026-05-06 09:56 | 45.46569 | -73.75903 | 643 ft | 166 kts | 226° |
| 2026-05-06 09:57 | 45.45856 | -73.77045 | 1619 ft | 155 kts | 234° |
| 2026-05-06 09:57 | 45.45250 | -73.78429 | 2141 ft | 177 kts | 245° |
| 2026-05-06 09:57 | 45.44743 | -73.80320 | 2158 ft | 235 kts | 255° |
| 2026-05-06 09:57 | 45.44382 | -73.82835 | 2635 ft | 274 kts | 258° |
| 2026-05-06 09:58 | 45.43623 | -73.85182 | 4325 ft | 267 kts | 230° |
| 2026-05-06 09:58 | 45.42214 | -73.86611 | 6045 ft | 255 kts | 203° |
| 2026-05-06 09:58 | 45.40487 | -73.86930 | 7230 ft | 265 kts | 177° |
| 2026-05-06 09:58 | 45.38748 | -73.85984 | 8333 ft | 282 kts | 152° |
| 2026-05-06 09:59 | 45.37398 | -73.83893 | 9358 ft | 302 kts | 127° |
| 2026-05-06 09:59 | 45.36692 | -73.81042 | 9832 ft | 323 kts | 103° |
| 2026-05-06 09:59 | 45.36809 | -73.77792 | 10231 ft | 340 kts | 82° |
| 2026-05-06 09:59 | 45.37067 | -73.74374 | 10328 ft | 356 kts | 97° |
| 2026-05-06 10:00 | 45.36745 | -73.70829 | 10368 ft | 372 kts | 107° |
| 2026-05-06 10:00 | 45.36133 | -73.67178 | 10484 ft | 389 kts | 110° |
| 2026-05-06 10:00 | 45.35385 | -73.63405 | 10915 ft | 397 kts | 112° |
| 2026-05-06 10:00 | 45.34594 | -73.59681 | 11605 ft | 397 kts | 113° |
| 2026-05-06 10:01 | 45.33776 | -73.55951 | 12150 ft | 401 kts | 113° |
| 2026-05-06 10:01 | 45.32923 | -73.52127 | 12714 ft | 405 kts | 114° |
| 2026-05-06 10:01 | 45.32071 | -73.48317 | 13271 ft | 408 kts | 114° |
| 2026-05-06 10:01 | 45.31216 | -73.44514 | 13744 ft | 412 kts | 114° |
| 2026-05-06 10:02 | 45.30339 | -73.40618 | 14256 ft | 415 kts | 114° |
| 2026-05-06 10:02 | 45.29462 | -73.36739 | 14800 ft | 417 kts | 114° |
| 2026-05-06 10:02 | 45.28566 | -73.32772 | 15249 ft | 421 kts | 115° |
| 2026-05-06 10:02 | 45.27674 | -73.28848 | 15684 ft | 424 kts | 115° |
| 2026-05-06 10:03 | 45.26775 | -73.24884 | 16137 ft | 426 kts | 115° |
| 2026-05-06 10:03 | 45.25854 | -73.20835 | 16558 ft | 429 kts | 115° |
| 2026-05-06 10:03 | 45.24947 | -73.16843 | 17060 ft | 430 kts | 115° |
| 2026-05-06 10:03 | 45.24018 | -73.12789 | 17520 ft | 432 kts | 115° |
| 2026-05-06 10:04 | 45.23094 | -73.08745 | 17808 ft | 437 kts | 114° |
| 2026-05-06 10:04 | 45.22179 | -73.04666 | 18162 ft | 442 kts | 111° |
| 2026-05-06 10:04 | 45.21819 | -73.00266 | 18558 ft | 457 kts | 92° |
| 2026-05-06 10:04 | 45.22350 | -72.95798 | 18968 ft | 465 kts | 76° |
| 2026-05-06 10:05 | 45.23718 | -72.91653 | 19264 ft | 473 kts | 58° |
| 2026-05-06 10:05 | 45.25496 | -72.87686 | 19631 ft | 474 kts | 59° |
| 2026-05-06 10:05 | 45.27171 | -72.83648 | 19974 ft | 477 kts | 60° |
| 2026-05-06 10:05 | 45.28657 | -72.79506 | 20245 ft | 479 kts | 71° |
| 2026-05-06 10:06 | 45.29371 | -72.74946 | 20607 ft | 473 kts | 88° |
| 2026-05-06 10:06 | 45.29540 | -72.70323 | 20982 ft | 473 kts | 90° |
| 2026-05-06 10:06 | 45.29715 | -72.65617 | 21244 ft | 478 kts | 90° |
| 2026-05-06 10:06 | 45.29897 | -72.60919 | 21682 ft | 477 kts | 90° |
| 2026-05-06 10:07 | 45.30154 | -72.56243 | 21937 ft | 482 kts | 89° |
| 2026-05-06 10:07 | 45.30422 | -72.51455 | 22183 ft | 486 kts | 89° |
| 2026-05-06 10:07 | 45.30686 | -72.46712 | 22602 ft | 486 kts | 89° |
| 2026-05-06 10:07 | 45.30949 | -72.41906 | 22870 ft | 488 kts | 89° |
| 2026-05-06 10:08 | 45.31207 | -72.37117 | 23141 ft | 491 kts | 89° |
| 2026-05-06 10:08 | 45.31469 | -72.32293 | 23431 ft | 493 kts | 90° |
| 2026-05-06 10:08 | 45.31725 | -72.27472 | 23731 ft | 494 kts | 90° |
| 2026-05-06 10:08 | 45.31985 | -72.22584 | 24004 ft | 497 kts | 89° |
| 2026-05-06 10:09 | 45.32240 | -72.17728 | 24291 ft | 499 kts | 89° |
| 2026-05-06 10:09 | 45.32494 | -72.12818 | 24515 ft | 503 kts | 89° |
| 2026-05-06 10:09 | 45.32758 | -72.07811 | 24784 ft | 505 kts | 90° |
| 2026-05-06 10:09 | 45.33006 | -72.02905 | 25159 ft | 504 kts | 89° |
| 2026-05-06 10:10 | 45.33261 | -71.97926 | 25345 ft | 509 kts | 89° |
| 2026-05-06 10:10 | 45.33514 | -71.92933 | 25593 ft | 512 kts | 89° |
| 2026-05-06 10:10 | 45.33767 | -71.87885 | 25955 ft | 512 kts | 89° |
| 2026-05-06 10:10 | 45.34166 | -71.82832 | 26171 ft | 517 kts | 82° |
| 2026-05-06 10:11 | 45.34766 | -71.77792 | 26447 ft | 519 kts | 83° |
| 2026-05-06 10:11 | 45.35326 | -71.72749 | 26688 ft | 522 kts | 83° |
| 2026-05-06 10:11 | 45.35885 | -71.67629 | 26973 ft | 524 kts | 83° |
| 2026-05-06 10:11 | 45.36438 | -71.62556 | 27301 ft | 525 kts | 83° |
| 2026-05-06 10:12 | 45.36982 | -71.57468 | 27616 ft | 526 kts | 83° |
| 2026-05-06 10:12 | 45.37537 | -71.52308 | 27809 ft | 530 kts | 83° |
| 2026-05-06 10:12 | 45.38092 | -71.47111 | 28103 ft | 531 kts | 83° |
| 2026-05-06 10:12 | 45.38642 | -71.41946 | 28419 ft | 532 kts | 83° |
| 2026-05-06 10:13 | 45.39186 | -71.36780 | 28611 ft | 535 kts | 83° |
| 2026-05-06 10:13 | 45.39740 | -71.31539 | 28813 ft | 536 kts | 83° |
| 2026-05-06 10:13 | 45.40287 | -71.26322 | 28987 ft | 539 kts | 84° |
| 2026-05-06 10:13 | 45.40838 | -71.21030 | 29313 ft | 537 kts | 83° |
| 2026-05-06 10:14 | 45.41381 | -71.15797 | 29597 ft | 537 kts | 84° |
| 2026-05-06 10:14 | 45.41925 | -71.10559 | 29871 ft | 537 kts | 84° |
| 2026-05-06 10:14 | 45.42462 | -71.05321 | 30156 ft | 537 kts | 84° |
| 2026-05-06 10:14 | 45.43189 | -71.00159 | 30367 ft | 539 kts | 75° |
| 2026-05-06 10:15 | 45.44273 | -70.95056 | 30654 ft | 539 kts | 74° |
| 2026-05-06 10:15 | 45.45324 | -70.89997 | 30978 ft | 537 kts | 74° |
| 2026-05-06 10:15 | 45.46388 | -70.84852 | 31149 ft | 540 kts | 74° |
| 2026-05-06 10:15 | 45.47440 | -70.79734 | 31429 ft | 539 kts | 74° |
| 2026-05-06 10:16 | 45.48491 | -70.74632 | 31758 ft | 538 kts | 73° |
| 2026-05-06 10:16 | 45.49528 | -70.69550 | 31959 ft | 539 kts | 73° |
| 2026-05-06 10:16 | 45.50579 | -70.64436 | 32129 ft | 541 kts | 73° |
| 2026-05-06 10:16 | 45.51625 | -70.59294 | 32417 ft | 541 kts | 73° |
| 2026-05-06 10:17 | 45.52665 | -70.54174 | 32674 ft | 540 kts | 73° |
| 2026-05-06 10:17 | 45.53708 | -70.49020 | 32888 ft | 541 kts | 73° |
| 2026-05-06 10:17 | 45.54742 | -70.43909 | 33120 ft | 541 kts | 73° |
| 2026-05-06 10:17 | 45.55786 | -70.38738 | 33334 ft | 542 kts | 72° |
| 2026-05-06 10:18 | 45.56823 | -70.33594 | 33632 ft | 540 kts | 74° |
| 2026-05-06 10:18 | 45.57847 | -70.28475 | 33766 ft | 542 kts | 73° |
| 2026-05-06 10:18 | 45.58878 | -70.23344 | 34007 ft | 540 kts | 73° |
| 2026-05-06 10:18 | 45.59898 | -70.18218 | 34204 ft | 540 kts | 73° |
| 2026-05-06 10:19 | 45.60923 | -70.13078 | 34388 ft | 541 kts | 73° |
| 2026-05-06 10:19 | 45.61950 | -70.07923 | 34581 ft | 540 kts | 73° |
| 2026-05-06 10:19 | 45.62965 | -70.02773 | 34734 ft | 540 kts | 72° |
| 2026-05-06 10:19 | 45.63988 | -69.97611 | 34874 ft | 540 kts | 72° |
| 2026-05-06 10:20 | 45.64992 | -69.92525 | 35137 ft | 537 kts | 72° |
| 2026-05-06 10:20 | 45.66001 | -69.87369 | 35413 ft | 533 kts | 72° |
| 2026-05-06 10:20 | 45.66993 | -69.82332 | 35526 ft | 534 kts | 73° |
| 2026-05-06 10:20 | 45.67991 | -69.77209 | 35638 ft | 534 kts | 72° |
| 2026-05-06 10:21 | 45.68988 | -69.72118 | 35810 ft | 532 kts | 73° |
| 2026-05-06 10:21 | 45.69959 | -69.67104 | 36046 ft | 530 kts | 72° |
| 2026-05-06 10:21 | 45.70949 | -69.61998 | 36157 ft | 530 kts | 73° |
| 2026-05-06 10:21 | 45.71925 | -69.56955 | 36229 ft | 531 kts | 72° |
| 2026-05-06 10:22 | 45.72903 | -69.51897 | 36426 ft | 528 kts | 73° |
| 2026-05-06 10:22 | 45.73876 | -69.46836 | 36575 ft | 527 kts | 72° |
| 2026-05-06 10:22 | 45.74835 | -69.41840 | 36705 ft | 526 kts | 72° |
| 2026-05-06 10:22 | 45.75803 | -69.36784 | 36903 ft | 525 kts | 72° |
| 2026-05-06 10:23 | 45.77726 | -69.26698 | 36851 ft | 526 kts | 73° |
| 2026-05-06 10:23 | 45.79627 | -69.16669 | 36836 ft | 523 kts | 73° |
| 2026-05-06 10:24 | 45.81516 | -69.06664 | 36854 ft | 523 kts | 74° |
| 2026-05-06 10:24 | 45.83394 | -68.96665 | 36860 ft | 525 kts | 73° |
| 2026-05-06 10:25 | 45.85274 | -68.86587 | 36857 ft | 522 kts | 74° |
| 2026-05-06 10:25 | 45.87139 | -68.76543 | 36867 ft | 523 kts | 74° |
| 2026-05-06 10:26 | 45.88994 | -68.66495 | 36871 ft | 524 kts | 74° |
| 2026-05-06 10:26 | 45.90830 | -68.56486 | 36869 ft | 522 kts | 74° |
| 2026-05-06 10:27 | 45.92671 | -68.46430 | 36876 ft | 521 kts | 75° |
| 2026-05-06 10:27 | 45.94487 | -68.36420 | 36870 ft | 521 kts | 74° |
| 2026-05-06 10:28 | 45.96308 | -68.26343 | 36857 ft | 520 kts | 75° |
| 2026-05-06 10:28 | 45.98106 | -68.16335 | 36861 ft | 521 kts | 76° |
| 2026-05-06 10:29 | 45.99906 | -68.06259 | 36857 ft | 519 kts | 76° |
| 2026-05-06 10:29 | 46.01680 | -67.96278 | 36865 ft | 518 kts | 75° |
| 2026-05-06 10:30 | 46.03451 | -67.86261 | 36871 ft | 519 kts | 75° |
| 2026-05-06 10:30 | 46.05867 | -67.76567 | 36888 ft | 517 kts | 63° |
| 2026-05-06 10:31 | 46.08872 | -67.67217 | 36881 ft | 517 kts | 64° |
| 2026-05-06 10:31 | 46.11756 | -67.57758 | 36879 ft | 518 kts | 64° |
| 2026-05-06 10:32 | 46.14621 | -67.48291 | 36888 ft | 518 kts | 65° |
| 2026-05-06 10:32 | 46.17484 | -67.38779 | 36881 ft | 518 kts | 65° |
| 2026-05-06 10:33 | 46.20328 | -67.29301 | 36860 ft | 516 kts | 66° |
| 2026-05-06 10:33 | 46.23157 | -67.19840 | 36867 ft | 517 kts | 66° |
| 2026-05-06 10:34 | 46.25989 | -67.10325 | 36863 ft | 518 kts | 66° |
| 2026-05-06 10:34 | 46.28817 | -67.00791 | 36858 ft | 516 kts | 65° |
| 2026-05-06 10:35 | 46.31631 | -66.91268 | 36860 ft | 518 kts | 66° |
| 2026-05-06 10:35 | 46.34432 | -66.81743 | 36864 ft | 515 kts | 66° |
| 2026-05-06 10:36 | 46.37228 | -66.72206 | 36873 ft | 515 kts | 65° |
| 2026-05-06 10:36 | 46.40003 | -66.62707 | 36869 ft | 514 kts | 65° |
| 2026-05-06 10:37 | 46.42767 | -66.53213 | 36882 ft | 514 kts | 66° |
| 2026-05-06 10:37 | 46.45518 | -66.43711 | 36888 ft | 514 kts | 66° |
| 2026-05-06 10:38 | 46.48277 | -66.34161 | 36888 ft | 512 kts | 66° |
| 2026-05-06 10:38 | 46.51006 | -66.24673 | 36885 ft | 512 kts | 67° |
| 2026-05-06 10:39 | 46.53713 | -66.15218 | 36881 ft | 511 kts | 66° |
| 2026-05-06 10:39 | 46.56426 | -66.05713 | 36878 ft | 512 kts | 66° |
| 2026-05-06 10:40 | 46.59125 | -65.96217 | 36883 ft | 511 kts | 66° |
| 2026-05-06 10:40 | 46.61815 | -65.86706 | 36892 ft | 509 kts | 67° |
| 2026-05-06 10:41 | 46.64510 | -65.77158 | 36877 ft | 510 kts | 67° |
| 2026-05-06 10:41 | 46.67170 | -65.67685 | 36886 ft | 510 kts | 67° |
| 2026-05-06 10:42 | 46.69830 | -65.58171 | 36903 ft | 509 kts | 67° |
| 2026-05-06 10:42 | 46.72486 | -65.48642 | 36899 ft | 508 kts | 67° |
| 2026-05-06 10:43 | 46.75140 | -65.39088 | 36891 ft | 509 kts | 67° |
| 2026-05-06 10:44 | 46.79089 | -65.24798 | 36902 ft | 508 kts | 68° |
| 2026-05-06 10:44 | 46.81703 | -65.15276 | 36910 ft | 507 kts | 68° |
| 2026-05-06 10:45 | 46.84299 | -65.05802 | 36909 ft | 507 kts | 68° |
| 2026-05-06 10:45 | 46.86901 | -64.96256 | 36910 ft | 508 kts | 68° |
| 2026-05-06 10:46 | 46.89503 | -64.86675 | 36914 ft | 507 kts | 68° |
| 2026-05-06 10:46 | 46.92080 | -64.77145 | 36913 ft | 507 kts | 68° |
| 2026-05-06 10:47 | 46.94655 | -64.67595 | 36921 ft | 508 kts | 68° |
| 2026-05-06 10:47 | 46.97218 | -64.58023 | 36923 ft | 508 kts | 68° |
| 2026-05-06 10:48 | 46.99796 | -64.48384 | 36921 ft | 509 kts | 68° |
| 2026-05-06 10:48 | 47.02352 | -64.38771 | 36911 ft | 508 kts | 69° |
| 2026-05-06 10:49 | 47.04907 | -64.29136 | 36892 ft | 509 kts | 69° |
| 2026-05-06 10:49 | 47.07452 | -64.19495 | 36902 ft | 510 kts | 70° |
| 2026-05-06 10:50 | 47.09994 | -64.09828 | 36887 ft | 508 kts | 70° |
| 2026-05-06 10:50 | 47.12525 | -64.00150 | 36879 ft | 508 kts | 69° |
| 2026-05-06 10:51 | 47.15043 | -63.90490 | 36883 ft | 510 kts | 69° |
| 2026-05-06 10:51 | 47.17559 | -63.80790 | 36886 ft | 510 kts | 69° |
| 2026-05-06 10:52 | 47.20066 | -63.71095 | 36894 ft | 508 kts | 69° |
| 2026-05-06 10:52 | 47.22551 | -63.61440 | 36899 ft | 507 kts | 69° |
| 2026-05-06 10:53 | 47.25043 | -63.51717 | 36901 ft | 509 kts | 70° |
| 2026-05-06 10:53 | 47.27523 | -63.42002 | 36913 ft | 509 kts | 69° |
| 2026-05-06 10:54 | 47.29992 | -63.32276 | 36909 ft | 509 kts | 70° |
| 2026-05-06 10:54 | 47.32451 | -63.22562 | 36919 ft | 509 kts | 70° |
| 2026-05-06 10:55 | 47.34911 | -63.12802 | 36908 ft | 511 kts | 70° |
| 2026-05-06 10:55 | 47.37367 | -63.03009 | 36920 ft | 510 kts | 70° |
| 2026-05-06 10:56 | 47.39810 | -62.93229 | 36911 ft | 509 kts | 70° |
| 2026-05-06 10:56 | 47.42234 | -62.83487 | 36906 ft | 509 kts | 70° |
| 2026-05-06 10:57 | 47.44661 | -62.73690 | 36913 ft | 509 kts | 70° |
| 2026-05-06 10:57 | 47.47066 | -62.63933 | 36916 ft | 509 kts | 70° |
| 2026-05-06 10:58 | 47.49470 | -62.54135 | 36913 ft | 509 kts | 70° |
| 2026-05-06 10:58 | 47.51870 | -62.44317 | 36912 ft | 509 kts | 70° |
| 2026-05-06 10:59 | 47.54251 | -62.34526 | 36920 ft | 509 kts | 70° |
| 2026-05-06 10:59 | 47.56632 | -62.24701 | 36918 ft | 509 kts | 71° |
| 2026-05-06 11:00 | 47.59010 | -62.14841 | 36913 ft | 510 kts | 70° |
| 2026-05-06 11:00 | 47.61379 | -62.04977 | 36917 ft | 509 kts | 70° |
| 2026-05-06 11:01 | 47.63730 | -61.95146 | 36926 ft | 508 kts | 71° |
| 2026-05-06 11:01 | 47.66069 | -61.85319 | 36921 ft | 507 kts | 70° |
| 2026-05-06 11:02 | 47.68397 | -61.75493 | 36919 ft | 506 kts | 71° |
| 2026-05-06 11:02 | 47.70710 | -61.65674 | 36925 ft | 506 kts | 71° |
| 2026-05-06 11:03 | 47.73022 | -61.55831 | 36928 ft | 506 kts | 71° |
| 2026-05-06 11:03 | 47.75319 | -61.46002 | 36923 ft | 505 kts | 71° |
| 2026-05-06 11:04 | 47.77600 | -61.36193 | 36929 ft | 505 kts | 71° |
| 2026-05-06 11:04 | 47.79883 | -61.26349 | 36916 ft | 504 kts | 72° |
| 2026-05-06 11:05 | 47.82139 | -61.16551 | 36915 ft | 502 kts | 72° |
| 2026-05-06 11:05 | 47.84386 | -61.06763 | 36931 ft | 502 kts | 72° |
| 2026-05-06 11:06 | 47.86616 | -60.96998 | 36921 ft | 501 kts | 72° |
| 2026-05-06 11:06 | 47.88842 | -60.87207 | 36934 ft | 501 kts | 72° |
| 2026-05-06 11:07 | 47.91058 | -60.77419 | 36939 ft | 500 kts | 72° |
| 2026-05-06 11:07 | 47.93257 | -60.67665 | 36954 ft | 499 kts | 71° |
| 2026-05-06 11:08 | 47.95446 | -60.57896 | 36964 ft | 498 kts | 72° |
| 2026-05-06 11:08 | 47.97629 | -60.48127 | 36963 ft | 500 kts | 71° |
| 2026-05-06 11:09 | 47.99809 | -60.38314 | 36955 ft | 500 kts | 72° |
| 2026-05-06 11:09 | 48.01984 | -60.28482 | 36950 ft | 499 kts | 73° |
| 2026-05-06 11:10 | 48.04137 | -60.18699 | 36962 ft | 499 kts | 73° |
| 2026-05-06 11:10 | 48.06283 | -60.08901 | 36960 ft | 497 kts | 73° |
| 2026-05-06 11:11 | 48.08428 | -59.99062 | 36970 ft | 498 kts | 72° |
| 2026-05-06 11:11 | 48.10553 | -59.89276 | 36973 ft | 497 kts | 72° |
| 2026-05-06 11:12 | 48.12660 | -59.79518 | 36972 ft | 494 kts | 72° |
| 2026-05-06 11:12 | 48.14759 | -59.69755 | 36967 ft | 495 kts | 73° |
| 2026-05-06 11:13 | 48.16855 | -59.59959 | 36970 ft | 496 kts | 73° |
| 2026-05-06 11:13 | 48.18941 | -59.50158 | 36972 ft | 496 kts | 72° |
| 2026-05-06 11:14 | 48.21021 | -59.40344 | 36980 ft | 495 kts | 72° |
| 2026-05-06 11:14 | 48.23079 | -59.30587 | 36973 ft | 494 kts | 73° |
| 2026-05-06 11:15 | 48.25137 | -59.20780 | 36976 ft | 494 kts | 73° |
| 2026-05-06 11:15 | 48.27187 | -59.10968 | 36982 ft | 494 kts | 73° |
| 2026-05-06 11:16 | 48.29230 | -59.01139 | 36987 ft | 493 kts | 73° |
| 2026-05-06 11:16 | 48.31250 | -58.91373 | 36997 ft | 492 kts | 73° |
| 2026-05-06 11:17 | 48.33267 | -58.81567 | 36983 ft | 495 kts | 74° |
| 2026-05-06 11:17 | 48.35274 | -58.71770 | 36984 ft | 494 kts | 74° |
| 2026-05-06 11:18 | 48.37281 | -58.61917 | 36994 ft | 492 kts | 73° |
| 2026-05-06 11:18 | 48.39271 | -58.52103 | 37000 ft | 493 kts | 73° |
| 2026-05-06 11:19 | 48.41249 | -58.42303 | 36990 ft | 493 kts | 74° |
| 2026-05-06 11:19 | 48.43227 | -58.32447 | 36979 ft | 493 kts | 75° |
| 2026-05-06 11:20 | 48.45197 | -58.22581 | 36984 ft | 493 kts | 75° |
| 2026-05-06 11:20 | 48.47146 | -58.12780 | 36978 ft | 493 kts | 75° |
| 2026-05-06 11:21 | 48.49103 | -58.02879 | 36978 ft | 493 kts | 75° |
| 2026-05-06 11:21 | 48.51035 | -57.93053 | 36996 ft | 493 kts | 75° |
| 2026-05-06 11:22 | 48.52977 | -57.83136 | 36997 ft | 493 kts | 75° |
| 2026-05-06 11:22 | 48.54900 | -57.73256 | 36998 ft | 493 kts | 75° |
| 2026-05-06 11:23 | 48.56809 | -57.63406 | 36996 ft | 492 kts | 75° |
| 2026-05-06 11:23 | 48.58720 | -57.53490 | 36995 ft | 492 kts | 75° |
| 2026-05-06 11:24 | 48.60609 | -57.43630 | 36996 ft | 494 kts | 75° |
| 2026-05-06 11:24 | 48.62504 | -57.33700 | 37013 ft | 492 kts | 75° |
| 2026-05-06 11:25 | 48.64383 | -57.23800 | 37004 ft | 491 kts | 76° |
| 2026-05-06 11:25 | 48.66252 | -57.13892 | 37012 ft | 490 kts | 75° |
| 2026-05-06 11:26 | 48.68108 | -57.04001 | 37012 ft | 491 kts | 75° |
| 2026-05-06 11:26 | 48.69962 | -56.94079 | 36992 ft | 492 kts | 75° |
| 2026-05-06 11:27 | 48.71804 | -56.84162 | 37000 ft | 493 kts | 75° |
| 2026-05-06 11:27 | 48.73638 | -56.74234 | 37017 ft | 492 kts | 75° |
| 2026-05-06 11:28 | 48.75468 | -56.64268 | 37016 ft | 493 kts | 75° |
| 2026-05-06 11:28 | 48.77294 | -56.54275 | 37035 ft | 494 kts | 75° |
| 2026-05-06 11:29 | 48.79106 | -56.44304 | 37032 ft | 493 kts | 75° |
| 2026-05-06 11:29 | 48.80917 | -56.34293 | 37004 ft | 494 kts | 76° |
| 2026-05-06 11:30 | 48.82705 | -56.24337 | 36995 ft | 494 kts | 76° |
| 2026-05-06 11:30 | 48.84498 | -56.14313 | 37015 ft | 493 kts | 76° |
| 2026-05-06 11:31 | 48.86288 | -56.04242 | 37007 ft | 494 kts | 76° |
| 2026-05-06 11:31 | 48.88060 | -55.94221 | 36998 ft | 495 kts | 76° |
| 2026-05-06 11:32 | 48.89820 | -55.84203 | 37005 ft | 495 kts | 75° |
| 2026-05-06 11:32 | 48.91589 | -55.74081 | 37005 ft | 496 kts | 75° |
| 2026-05-06 11:33 | 48.93350 | -55.63946 | 37017 ft | 496 kts | 76° |
| 2026-05-06 11:33 | 48.95097 | -55.53840 | 36994 ft | 496 kts | 75° |
| 2026-05-06 11:34 | 48.96829 | -55.43760 | 36984 ft | 498 kts | 75° |
| 2026-05-06 11:34 | 48.98563 | -55.33612 | 37014 ft | 497 kts | 76° |
| 2026-05-06 11:35 | 49.00288 | -55.23454 | 37007 ft | 496 kts | 76° |
| 2026-05-06 11:35 | 49.02004 | -55.13294 | 37013 ft | 498 kts | 76° |
| 2026-05-06 11:36 | 49.03708 | -55.03125 | 37011 ft | 498 kts | 76° |
| 2026-05-06 11:36 | 49.05417 | -54.92897 | 37029 ft | 499 kts | 76° |
| 2026-05-06 11:37 | 49.07113 | -54.82652 | 37024 ft | 500 kts | 76° |
| 2026-05-06 11:37 | 49.08798 | -54.72430 | 37022 ft | 499 kts | 76° |
| 2026-05-06 11:38 | 49.10475 | -54.62204 | 37025 ft | 499 kts | 75° |
| 2026-05-06 11:38 | 49.12133 | -54.52021 | 37026 ft | 499 kts | 76° |
| 2026-05-06 11:39 | 49.13793 | -54.41761 | 37037 ft | 498 kts | 76° |
| 2026-05-06 11:39 | 49.15445 | -54.31498 | 37019 ft | 499 kts | 76° |
| 2026-05-06 11:40 | 49.17081 | -54.21261 | 37003 ft | 498 kts | 76° |
| 2026-05-06 11:40 | 49.18705 | -54.11031 | 37006 ft | 498 kts | 76° |
| 2026-05-06 11:41 | 49.20325 | -54.00776 | 37007 ft | 498 kts | 76° |
| 2026-05-06 11:41 | 49.21927 | -53.90568 | 37013 ft | 498 kts | 76° |
| 2026-05-06 11:42 | 49.23534 | -53.80251 | 37004 ft | 499 kts | 76° |
| 2026-05-06 11:42 | 49.25133 | -53.69939 | 37021 ft | 500 kts | 76° |
| 2026-05-06 11:43 | 49.26714 | -53.59675 | 37029 ft | 499 kts | 76° |
| 2026-05-06 11:43 | 49.28291 | -53.49366 | 37023 ft | 500 kts | 76° |
| 2026-05-06 11:44 | 49.30638 | -53.33887 | 37017 ft | 499 kts | 76° |
| 2026-05-06 11:44 | 49.32194 | -53.23550 | 37020 ft | 501 kts | 76° |
| 2026-05-06 11:45 | 49.33749 | -53.13145 | 37021 ft | 500 kts | 76° |
| 2026-05-06 11:45 | 49.35289 | -53.02788 | 37017 ft | 501 kts | 76° |
| 2026-05-06 11:46 | 49.36821 | -52.92402 | 37014 ft | 501 kts | 76° |
| 2026-05-06 11:46 | 49.38338 | -52.82034 | 37019 ft | 500 kts | 75° |
| 2026-05-06 11:47 | 49.39848 | -52.71671 | 37029 ft | 501 kts | 75° |
| 2026-05-06 11:47 | 49.41349 | -52.61280 | 37046 ft | 500 kts | 75° |
| 2026-05-06 11:48 | 49.42838 | -52.50921 | 37046 ft | 498 kts | 75° |
| 2026-05-06 11:48 | 49.44314 | -52.40566 | 37045 ft | 498 kts | 75° |
| 2026-05-06 11:49 | 49.45784 | -52.30197 | 37034 ft | 497 kts | 76° |
| 2026-05-06 11:49 | 49.47233 | -52.19879 | 37039 ft | 496 kts | 75° |
| 2026-05-06 11:50 | 49.48671 | -52.09593 | 37051 ft | 493 kts | 75° |
| 2026-05-06 11:50 | 49.50097 | -51.99322 | 37054 ft | 493 kts | 74° |
| 2026-05-06 11:51 | 49.52217 | -51.89411 | 37069 ft | 487 kts | 62° |
| 2026-05-06 11:51 | 49.55119 | -51.80039 | 37062 ft | 488 kts | 63° |
| 2026-05-06 11:52 | 49.57677 | -51.70408 | 37046 ft | 489 kts | 64° |
| 2026-05-06 11:52 | 49.60174 | -51.60731 | 37054 ft | 488 kts | 64° |
| 2026-05-06 11:53 | 49.62660 | -51.51033 | 37051 ft | 487 kts | 64° |
| 2026-05-06 11:53 | 49.65133 | -51.41342 | 37044 ft | 488 kts | 64° |
| 2026-05-06 11:54 | 49.67596 | -51.31645 | 37032 ft | 487 kts | 65° |
| 2026-05-06 11:54 | 49.70052 | -51.21938 | 37043 ft | 487 kts | 65° |
| 2026-05-06 11:55 | 49.72503 | -51.12206 | 37034 ft | 489 kts | 65° |
| 2026-05-06 11:55 | 49.74937 | -51.02498 | 37033 ft | 486 kts | 65° |
| 2026-05-06 11:56 | 49.77375 | -50.92736 | 37056 ft | 486 kts | 65° |
| 2026-05-06 11:56 | 49.79789 | -50.83021 | 37031 ft | 486 kts | 65° |
| 2026-05-06 11:57 | 49.82198 | -50.73296 | 37037 ft | 486 kts | 65° |
| 2026-05-06 11:57 | 49.84595 | -50.63565 | 37045 ft | 486 kts | 65° |
| 2026-05-06 11:58 | 49.86992 | -50.53797 | 37050 ft | 487 kts | 65° |
| 2026-05-06 11:58 | 49.89381 | -50.44022 | 37047 ft | 487 kts | 65° |
| 2026-05-06 11:59 | 49.91756 | -50.34251 | 37042 ft | 487 kts | 65° |
| 2026-05-06 11:59 | 49.94128 | -50.24457 | 37045 ft | 488 kts | 65° |
| 2026-05-06 12:00 | 49.96513 | -50.14559 | 37039 ft | 488 kts | 65° |
| 2026-05-06 12:00 | 49.98872 | -50.04728 | 37049 ft | 487 kts | 65° |
| 2026-05-06 12:01 | 50.00776 | -49.94672 | 37052 ft | 493 kts | 74° |
| 2026-05-06 12:01 | 50.02283 | -49.84255 | 37052 ft | 493 kts | 73° |
| 2026-05-06 12:02 | 50.03772 | -49.73918 | 37047 ft | 492 kts | 73° |
| 2026-05-06 12:02 | 50.05240 | -49.63628 | 37068 ft | 491 kts | 73° |
| 2026-05-06 12:03 | 50.06708 | -49.53274 | 37086 ft | 493 kts | 73° |
| 2026-05-06 12:03 | 50.08177 | -49.42847 | 37096 ft | 493 kts | 73° |
| 2026-05-06 12:04 | 50.09632 | -49.32441 | 37090 ft | 494 kts | 74° |
| 2026-05-06 12:04 | 50.11076 | -49.22038 | 37092 ft | 494 kts | 74° |
| 2026-05-06 12:05 | 50.12510 | -49.11636 | 37102 ft | 494 kts | 74° |
| 2026-05-06 12:05 | 50.13936 | -49.01220 | 37103 ft | 493 kts | 74° |
| 2026-05-06 12:06 | 50.15350 | -48.90824 | 37102 ft | 493 kts | 74° |
| 2026-05-06 12:06 | 50.16755 | -48.80413 | 37103 ft | 493 kts | 74° |
| 2026-05-06 12:07 | 50.18149 | -48.70006 | 37086 ft | 492 kts | 74° |
| 2026-05-06 12:07 | 50.19540 | -48.59558 | 37098 ft | 492 kts | 74° |
| 2026-05-06 12:08 | 50.20919 | -48.49108 | 37109 ft | 494 kts | 74° |
| 2026-05-06 12:08 | 50.22285 | -48.38691 | 37103 ft | 493 kts | 73° |
| 2026-05-06 12:09 | 50.23644 | -48.28248 | 37096 ft | 493 kts | 74° |
| 2026-05-06 12:09 | 50.24991 | -48.17816 | 37107 ft | 492 kts | 74° |
| 2026-05-06 12:10 | 50.26329 | -48.07376 | 37113 ft | 493 kts | 74° |
| 2026-05-06 12:10 | 50.27667 | -47.96862 | 37122 ft | 493 kts | 74° |
| 2026-05-06 12:11 | 50.28987 | -47.86403 | 37125 ft | 492 kts | 74° |
| 2026-05-06 12:11 | 50.30296 | -47.75957 | 37130 ft | 493 kts | 74° |
| 2026-05-06 12:12 | 50.31599 | -47.65472 | 37120 ft | 492 kts | 74° |
| 2026-05-06 12:12 | 50.32887 | -47.55019 | 37123 ft | 492 kts | 73° |
| 2026-05-06 12:13 | 50.34174 | -47.44517 | 37131 ft | 493 kts | 74° |
| 2026-05-06 12:13 | 50.35447 | -47.34020 | 37124 ft | 494 kts | 75° |
| 2026-05-06 12:14 | 50.36714 | -47.23494 | 37126 ft | 494 kts | 74° |
| 2026-05-06 12:14 | 50.37971 | -47.12984 | 37127 ft | 494 kts | 74° |
| 2026-05-06 12:15 | 50.39215 | -47.02473 | 37130 ft | 492 kts | 74° |
| 2026-05-06 12:15 | 50.40449 | -46.91969 | 37137 ft | 493 kts | 74° |
| 2026-05-06 12:16 | 50.41679 | -46.81430 | 37134 ft | 493 kts | 74° |
| 2026-05-06 12:16 | 50.42898 | -46.70889 | 37125 ft | 492 kts | 74° |
| 2026-05-06 12:17 | 50.44103 | -46.60372 | 37127 ft | 493 kts | 74° |
| 2026-05-06 12:17 | 50.45301 | -46.49840 | 37138 ft | 493 kts | 73° |
| 2026-05-06 12:18 | 50.46493 | -46.39269 | 37142 ft | 494 kts | 73° |
| 2026-05-06 12:18 | 50.47670 | -46.28737 | 37123 ft | 494 kts | 74° |
| 2026-05-06 12:19 | 50.48842 | -46.18153 | 37130 ft | 495 kts | 74° |
| 2026-05-06 12:19 | 50.50005 | -46.07582 | 37132 ft | 492 kts | 74° |
| 2026-05-06 12:20 | 50.51157 | -45.96984 | 37127 ft | 490 kts | 74° |
| 2026-05-06 12:20 | 50.52294 | -45.86457 | 37126 ft | 492 kts | 74° |
| 2026-05-06 12:21 | 50.53426 | -45.75868 | 37131 ft | 492 kts | 74° |
| 2026-05-06 12:21 | 50.54542 | -45.65358 | 37133 ft | 489 kts | 74° |
| 2026-05-06 12:22 | 50.55653 | -45.54797 | 37134 ft | 491 kts | 74° |
| 2026-05-06 12:22 | 50.56750 | -45.44233 | 37128 ft | 490 kts | 73° |
| 2026-05-06 12:23 | 50.57837 | -45.33709 | 37126 ft | 489 kts | 75° |
| 2026-05-06 12:23 | 50.58916 | -45.23161 | 37120 ft | 492 kts | 75° |
| 2026-05-06 12:24 | 50.59988 | -45.12564 | 37125 ft | 492 kts | 75° |
| 2026-05-06 12:24 | 50.61046 | -45.02022 | 37142 ft | 490 kts | 75° |
| 2026-05-06 12:25 | 50.62094 | -44.91470 | 37130 ft | 490 kts | 75° |
| 2026-05-06 12:25 | 50.63142 | -44.80833 | 37139 ft | 491 kts | 75° |
| 2026-05-06 12:26 | 50.64173 | -44.70251 | 37134 ft | 490 kts | 74° |
| 2026-05-06 12:26 | 50.65193 | -44.59668 | 37136 ft | 492 kts | 75° |
| 2026-05-06 12:27 | 50.66207 | -44.49081 | 37121 ft | 491 kts | 75° |
| 2026-05-06 12:27 | 50.67207 | -44.38491 | 37131 ft | 492 kts | 74° |
| 2026-05-06 12:28 | 50.68203 | -44.27865 | 37117 ft | 491 kts | 75° |
| 2026-05-06 12:28 | 50.69189 | -44.17254 | 37133 ft | 493 kts | 75° |
| 2026-05-06 12:29 | 50.70164 | -44.06620 | 37135 ft | 493 kts | 75° |
| 2026-05-06 12:29 | 50.71135 | -43.95928 | 37114 ft | 491 kts | 76° |
| 2026-05-06 12:30 | 50.72085 | -43.85372 | 37106 ft | 491 kts | 76° |